VTCC/CNX METAR and TAF weather

Enter ICAO airport designator
Station Type Date Time Source
VTCC METAR 2021/09/25 12:30 UTC NOAA

VTCC 251230Z 18004KT 9999 BKN035 28/24 Q1006 NOSIG


Station Type Date Time Source
VTCC Decoded METAR 2021/09/25 12:30 UTC NOAA

Chiang Mai, Thailand (VTCC) 18-47N 098-59E 314M
Sep 25, 2021 - 08:30 AM EDT / 2021.09.25 1230 UTC
Wind: from the S (180 degrees) at 5 MPH (4 KT):0
Visibility: greater than 7 mile(s):0
Sky conditions: mostly cloudy
Temperature: 82 F (28 C)
Dew Point: 75 F (24 C)
Relative Humidity: 78%
Pressure (altimeter): 29.71 in. Hg (1006 hPa)
ob: VTCC 251230Z 18004KT 9999 BKN035 28/24 Q1006 NOSIG
cycle: 12

Station Type Date Time Source
VTCC TAF 2021/09/25 12:36 UTC NOAA

TAF VTCC 251100Z 2512/2618 36005KT 9999 BKN035
TEMPO 2512/2515 02015G25KT 4000 TSRA FEW025CB BKN030
TEMPO 2518/2524 04015G25KT 4000 TSRA FEW025CB BKN030

Example: see airport list